Latest Weather Observations for Point Fawcett

IDD60901

Issued at 7:15 pm CST Wednesday 23 July 2014 (issued every 10 minutes, with the page automatically refreshed every 10 minutes)

About weather observations | Map of Darwin area stations | Latest observations for Darwin area | Other Formats
Station Details ID: 200731 Name: POINT FAWCETT Lat: -11.76 Lon: 130.03 Height: 6.5 m
Data from the previous 72 hours. | See also: Recent months at Point Fawcett
Date/Time
CST
Tmp

°C
App
Tmp
°C
Dew
Point
°C
Rel
Hum
%
Delta-T

°C
Wind Press
QNH
hPa
Press
MSL
hPa
Rain
since
9 am
mm
Dir
 
Spd
km/h
Gust
km/h
Spd
kts
Gust
kts
23/07:00pm 21.1 21.7 15.9 72 3.1 SE 7 9 4 5 1011.8 - -
23/06:30pm 24.1 25.3 16.9 64 4.4 SSE 6 9 3 5 1011.6 - -
23/06:00pm 26.1 27.1 16.9 57 5.7 S 7 11 4 6 1011.4 1011.4 -
23/05:30pm 27.1 27.5 16.4 52 6.6 SE 9 17 5 9 1011.3 - -
23/05:00pm 28.1 28.4 16.1 48 7.4 SE 9 17 5 9 1011.2 - -
23/04:30pm 28.5 28.7 15.8 46 7.8 ESE 9 15 5 8 1011.2 - -
23/04:00pm 28.5 28.1 15.1 44 8.2 ESE 11 19 6 10 1011.2 - -
23/03:30pm 28.3 27.4 15.9 47 7.6 ESE 15 20 8 11 1011.2 - -
23/03:00pm 28.8 28.5 16.4 47 7.7 SSE 13 22 7 12 1011.4 1011.4 -
23/02:30pm 28.5 28.1 17.1 50 7.2 ESE 15 24 8 13 1011.7 - -
23/02:00pm 29.0 29.5 19.3 55 6.3 SE 15 22 8 12 1012.2 - -
23/01:30pm 27.9 28.6 18.9 58 5.8 SE 13 22 7 12 1012.6 - -
23/01:00pm 27.6 28.0 18.9 59 5.6 SE 15 28 8 15 1013.2 - -
23/12:30pm 27.1 27.7 19.4 62 5.0 SE 15 26 8 14 1013.6 - -
23/12:00pm 27.5 28.8 19.3 61 5.3 SE 11 22 6 12 1014.1 1014.1 -
23/11:30am 27.4 28.7 20.2 65 4.7 SSE 13 24 7 13 1014.5 - -
23/11:00am 27.0 28.3 20.1 66 4.5 SE 13 24 7 13 1014.8 - -
23/10:30am 26.5 27.3 19.9 67 4.3 SE 15 24 8 13 1015.0 - -
23/10:00am 26.6 27.7 19.7 66 4.5 ESE 13 22 7 12 1015.1 - -
23/09:30am 25.9 27.8 20.5 72 3.5 E 11 17 6 9 1015.2 - -
23/09:00am 24.5 26.1 20.0 76 2.9 E 11 17 6 9 1015.2 1015.2 -
23/08:30am 22.9 24.8 19.7 82 2.1 E 9 15 5 8 1015.0 - -
23/08:00am 21.0 22.4 18.6 86 1.5 ESE 9 13 5 7 1014.6 - -
23/07:30am 20.5 21.3 18.1 86 1.5 E 11 17 6 9 1014.3 - -
23/07:00am 20.1 20.8 17.9 87 1.4 E 11 17 6 9 1014.2 - -
23/06:30am 19.5 20.4 17.5 88 1.2 SE 9 17 5 9 1014.0 - -
23/06:00am 18.5 19.1 16.8 90 1.0 ESE 9 13 5 7 1013.5 1013.5 -
23/05:30am 18.6 19.1 16.6 88 1.2 SE 9 15 5 8 1013.3 - -
23/05:00am 20.3 21.1 18.1 87 1.4 E 11 15 6 8 1013.2 - -
23/04:30am 20.3 21.5 19.0 92 0.8 ENE 11 15 6 8 1012.9 - -
23/04:00am 20.3 22.0 19.3 94 0.6 E 9 17 5 9 1012.9 - -
23/03:30am 19.7 20.8 18.9 95 0.5 E 11 15 6 8 1013.0 - -
23/03:00am 17.8 18.1 17.0 95 0.5 NE 11 20 6 11 1013.2 1013.2 -
23/02:30am 14.4 14.1 13.3 93 0.6 ENE 7 9 4 5 1013.4 - -
23/02:00am 15.0 14.9 13.9 93 0.6 E 7 7 4 4 1013.6 - -
23/01:30am 15.2 15.3 13.9 92 0.7 E 6 7 3 4 1013.9 - -
23/01:00am 15.5 15.4 14.0 91 0.8 E 7 9 4 5 1014.1 - -
23/12:30am 15.9 15.8 13.9 88 1.1 E 7 9 4 5 1014.3 - -
23/12:00am 16.5 16.5 14.2 86 1.3 ENE 7 11 4 6 1014.2 1014.2 -
 
Date/Time
CST
Tmp

°C
App
Tmp
°C
Dew
Point
°C
Rel
Hum
%
Delta-T

°C
Wind Press
QNH
hPa
Press
MSL
hPa
Rain
since
9 am
mm
Dir
 
Spd
km/h
Gust
km/h
Spd
kts
Gust
kts
22/11:30pm 17.7 17.9 14.6 82 1.8 ENE 7 11 4 6 1014.2 - -
22/11:00pm 19.8 20.4 16.8 83 1.8 ENE 9 13 5 7 1014.3 - -
22/10:30pm 21.2 22.2 17.8 81 2.1 ENE 9 19 5 10 1014.3 - -
22/10:00pm 21.6 22.2 17.8 79 2.4 ENE 11 13 6 7 1014.3 - -
22/09:30pm 21.9 22.7 18.1 79 2.4 ENE 11 17 6 9 1014.1 - -
22/09:00pm 20.6 20.1 16.0 75 2.8 ENE 13 17 7 9 1014.0 1014.0 -
22/08:57pm 20.5 20.1 16.1 76 2.6 ENE 13 17 7 9 1014.0 - -
22/08:30pm 15.5 14.4 11.9 79 2.0 ENE 9 11 5 6 1013.5 - -
22/08:00pm 16.5 15.8 12.1 75 2.4 E 7 7 4 4 1013.1 - -
22/07:30pm 17.5 16.9 12.2 71 2.9 E 7 9 4 5 1012.9 - -
22/07:00pm 19.5 19.2 12.7 65 3.8 ESE 6 7 3 4 1012.5 - -
22/06:30pm 23.3 22.8 12.6 51 6.1 E 7 7 4 4 1012.1 - -
22/06:00pm 26.8 25.8 12.4 40 8.3 ESE 9 15 5 8 1011.8 1011.8 -
22/05:30pm 28.1 27.0 12.0 36 9.3 ESE 9 17 5 9 1011.6 - -
22/05:00pm 27.5 25.1 10.2 34 9.7 ESE 13 20 7 11 1011.3 - -
22/04:30pm 30.1 27.3 10.1 29 11.3 E 15 22 8 12 1011.1 - -
22/04:00pm 29.8 26.7 10.4 30 11.0 E 17 30 9 16 1011.2 - -
22/03:30pm 29.5 26.2 9.6 29 11.1 ESE 17 30 9 16 1011.6 - -
22/03:00pm 29.9 27.9 12.8 35 10.1 ESE 15 30 8 16 1011.8 1011.8 -
22/02:30pm 29.1 26.3 13.3 37 9.4 ESE 20 35 11 19 1012.2 - -
22/02:00pm 28.9 26.8 14.7 42 8.6 ESE 19 32 10 17 1012.5 - -
22/01:30pm 29.1 28.4 16.3 46 8.0 ESE 15 30 8 16 1013.2 - -
22/01:00pm 29.1 27.9 16.0 45 8.1 SE 17 26 9 14 1013.8 - -
22/12:30pm 28.9 27.9 16.5 47 7.7 ESE 17 32 9 17 1014.4 - -
22/12:00pm 28.8 28.1 17.3 49 7.2 ESE 17 32 9 17 1014.9 1014.9 -
22/11:30am 28.8 29.9 18.9 55 6.4 ESE 11 22 6 12 1015.2 - -
22/11:00am 28.0 28.0 18.1 55 6.3 E 15 22 8 12 1015.7 - -
22/10:30am 26.9 27.3 18.2 59 5.5 E 13 19 7 10 1016.1 - -
22/10:00am 27.4 29.1 20.2 65 4.7 ENE 11 20 6 11 1016.4 - -
22/09:30am 25.6 27.1 19.7 70 3.8 E 11 19 6 10 1016.6 - -
22/09:00am 24.0 25.5 20.5 81 2.3 E 13 19 7 10 1016.5 1016.5 -
22/08:30am 21.6 24.4 20.8 95 0.5 E 7 13 4 7 1016.1 - -
22/08:00am 18.9 20.1 18.2 96 0.4 E 9 13 5 7 1015.7 - -
22/07:30am 16.8 17.1 16.0 95 0.5 E 9 13 5 7 1015.4 - -
22/07:00am 16.2 16.3 15.4 95 0.5 ESE 9 13 5 7 1015.1 - -
22/06:30am 16.4 16.5 15.4 94 0.6 ESE 9 11 5 6 1014.8 - -
22/06:00am 16.7 16.9 15.7 94 0.6 ESE 9 11 5 6 1014.8 1014.8 -
22/05:30am 16.6 16.7 15.6 94 0.6 ESE 9 13 5 7 1014.6 - -
22/05:00am 16.8 17.0 15.7 93 0.6 ESE 9 11 5 6 1014.5 - -
22/04:30am 17.3 17.7 16.2 93 0.7 ESE 9 11 5 6 1014.4 - -
22/04:00am 17.9 18.2 16.9 94 0.6 ESE 11 15 6 8 1014.3 - -
22/03:30am 17.7 18.3 16.7 94 0.6 ESE 9 13 5 7 1014.4 - -
22/03:00am 18.1 18.4 17.1 94 0.6 ESE 11 13 6 7 1014.5 1014.5 -
22/02:30am 18.0 18.3 17.0 94 0.6 ESE 11 15 6 8 1014.6 - -
22/02:00am 16.8 17.0 15.8 94 0.6 ESE 9 11 5 6 1014.8 - -
22/01:30am 16.9 17.1 15.8 93 0.6 E 9 11 5 6 1014.7 - -
22/01:00am 17.0 17.3 15.9 93 0.6 ESE 9 11 5 6 1014.9 - -
22/12:30am 17.3 18.0 16.0 92 0.8 ESE 7 9 4 5 1015.0 - -
22/12:00am 17.6 17.9 16.1 91 0.9 E 9 11 5 6 1015.1 1015.1 -
 
Date/Time
CST
Tmp

°C
App
Tmp
°C
Dew
Point
°C
Rel
Hum
%
Delta-T

°C
Wind Press
QNH
hPa
Press
MSL
hPa
Rain
since
9 am
mm
Dir
 
Spd
km/h
Gust
km/h
Spd
kts
Gust
kts
21/11:30pm 17.5 17.7 15.8 90 1.0 E 9 9 5 5 1015.1 - -
21/11:00pm 17.7 18.2 15.5 87 1.3 ENE 7 11 4 6 1015.1 - -
21/10:30pm 18.2 18.7 15.6 85 1.5 E 7 9 4 5 1015.2 - -
21/10:00pm 19.3 20.0 16.2 82 1.9 ENE 7 9 4 5 1015.3 - -
21/09:30pm 20.7 21.6 16.5 77 2.5 ENE 7 9 4 5 1015.4 - -
21/09:00pm 23.7 25.8 19.4 77 2.7 NE 7 13 4 7 1015.2 1015.2 -
21/08:30pm 24.9 26.0 19.7 73 3.4 NNE 13 20 7 11 1014.8 - -
21/08:00pm 25.1 26.5 20.4 75 3.1 NNE 13 17 7 9 1014.5 - -
21/07:30pm 25.4 26.5 20.4 74 3.3 NNE 15 22 8 12 1014.0 - -
21/07:00pm 25.7 27.0 20.9 75 3.2 NNE 15 22 8 12 1013.6 - -
21/06:30pm 24.8 24.5 13.4 49 6.7 SE 7 9 4 5 1013.0 - -
21/06:00pm 27.7 27.3 12.5 39 8.9 SE 6 7 3 4 1012.7 1012.7 -
21/05:30pm 29.1 28.2 11.2 33 10.3 ESE 7 13 4 7 1012.5 - -
21/05:00pm 28.9 27.1 9.6 30 10.8 ESE 9 15 5 8 1012.3 - -
21/04:00pm 30.0 27.7 10.5 30 11.1 ESE 13 24 7 13 1012.2 - -
21/03:30pm 29.9 27.4 10.9 31 10.9 SE 15 26 8 14 1012.3 - -
21/03:00pm 30.1 27.5 12.1 33 10.5 SE 17 28 9 15 1012.6 1012.6 -
21/02:30pm 29.9 27.1 11.4 32 10.7 E 17 30 9 16 1013.1 - -
21/02:00pm 29.7 28.5 15.0 40 9.0 ESE 15 24 8 13 1013.5 - -
21/01:30pm 29.9 29.9 16.3 43 8.5 E 11 22 6 12 1013.8 - -
21/01:00pm 29.4 29.4 18.2 51 7.2 SE 15 20 8 11 1014.4 - -
21/12:30pm 29.5 29.3 17.7 49 7.5 ESE 15 24 8 13 1014.8 - -
21/12:00pm 29.2 29.7 18.3 51 7.0 ESE 13 24 7 13 1015.4 1015.4 -
21/11:30am 28.2 29.0 19.1 57 5.9 ESE 13 20 7 11 1015.6 - -
21/11:00am 27.5 29.0 19.8 63 5.0 ESE 11 24 6 13 1015.9 - -
21/10:30am 27.4 29.3 20.5 66 4.5 ESE 11 19 6 10 1016.1 - -
21/10:00am 27.0 29.0 20.8 69 4.1 E 11 20 6 11 1016.3 - -
21/09:30am 25.6 27.8 20.4 73 3.4 ESE 9 15 5 8 1016.3 - -
21/09:00am 24.2 26.7 21.1 83 2.0 E 9 17 5 9 1016.3 1016.3 -
21/08:30am 21.8 24.3 21.0 95 0.5 ESE 9 13 5 7 1016.0 - -
21/08:00am 18.6 19.7 17.9 96 0.4 ESE 9 11 5 6 1015.8 - -
21/07:30am 17.3 17.8 16.5 95 0.5 ESE 9 11 5 6 1015.6 - -
21/07:00am 16.5 16.7 15.7 95 0.5 ESE 9 11 5 6 1015.3 - -
21/06:30am 16.7 17.0 15.9 95 0.5 ESE 9 13 5 7 1015.0 - -
21/06:00am 16.4 16.5 15.4 94 0.6 ESE 9 13 5 7 1014.8 1014.8 -
21/05:30am 16.5 16.6 15.5 94 0.6 ESE 9 11 5 6 1014.7 - -
21/05:00am 16.4 16.4 15.3 93 0.6 ESE 9 9 5 5 1014.5 - -
21/04:30am 16.9 17.1 15.8 93 0.6 ESE 9 11 5 6 1014.5 - -
21/04:00am 17.3 17.6 16.0 92 0.8 ESE 9 11 5 6 1014.3 - -
21/03:30am 18.1 18.7 16.8 92 0.8 E 9 11 5 6 1014.4 - -
21/03:00am 19.6 20.9 18.4 93 0.7 E 9 11 5 6 1014.4 1014.4 -
21/02:30am 19.3 20.5 18.3 94 0.6 E 9 13 5 7 1014.5 - -
21/02:00am 19.7 20.8 18.9 95 0.5 E 11 15 6 8 1014.6 - -
21/01:30am 18.8 19.8 17.8 94 0.6 E 9 11 5 6 1014.6 - -
21/01:00am 17.2 17.5 16.1 93 0.7 E 9 11 5 6 1014.7 - -
21/12:30am 16.8 16.9 15.5 92 0.8 E 9 9 5 5 1014.6 - -
21/12:00am 16.9 17.3 15.4 91 0.9 E 7 9 4 5 1014.5 1014.5 -
 
Date/Time
CST
Tmp

°C
App
Tmp
°C
Dew
Point
°C
Rel
Hum
%
Delta-T

°C
Wind Press
QNH
hPa
Press
MSL
hPa
Rain
since
9 am
mm
Dir
 
Spd
km/h
Gust
km/h
Spd
kts
Gust
kts
20/11:30pm 17.3 17.8 15.6 90 1.0 E 7 7 4 4 1014.3 - -
20/11:00pm 17.6 18.1 15.6 88 1.2 E 7 7 4 4 1014.5 - -
20/10:30pm 18.0 18.8 15.8 87 1.3 E 6 7 3 4 1014.8 - -
20/10:00pm 18.6 19.2 15.7 83 1.7 E 7 7 4 4 1014.6 - -
20/09:30pm 19.7 20.2 15.6 77 2.4 SE 7 9 4 5 1014.3 - -
20/09:00pm 22.5 23.8 17.2 72 3.3 E 6 9 3 5 1014.0 1014.0 -
20/08:30pm 24.8 26.7 20.5 77 2.8 NNE 11 15 6 8 1013.7 - -
20/08:00pm 24.8 26.7 21.3 81 2.3 NNE 13 20 7 11 1013.4 - -
20/07:30pm 21.4 21.7 15.9 71 3.3 ENE 9 11 5 6 1013.2 - -

Latest Capital City Observations: Canberra | Sydney | Melbourne | Brisbane | Adelaide | Perth | Hobart | Darwin

Other Formats:

Comma delimited format used in spreadsheet applications
http://www.bom.gov.au/fwo/IDD60901/IDD60901.94122.axf

JavaScript Object Notation format (JSON) in row-major order
http://www.bom.gov.au/fwo/IDD60901/IDD60901.94122.json